sensor_id;sensor_type;location;lat;lon;timestamp;temperature;humidity
25811;DHT22;13645;52.460;13.910;2022-12-18T00:02:13;-4.60;99.90
25811;DHT22;13645;52.460;13.910;2022-12-18T00:04:39;-4.70;99.90
25811;DHT22;13645;52.460;13.910;2022-12-18T00:07:06;-4.70;99.90
25811;DHT22;13645;52.460;13.910;2022-12-18T00:09:33;-4.70;99.90
25811;DHT22;13645;52.460;13.910;2022-12-18T00:12:06;-4.70;99.90
25811;DHT22;13645;52.460;13.910;2022-12-18T00:14:41;-4.80;99.90
25811;DHT22;13645;52.460;13.910;2022-12-18T00:17:08;-4.90;99.90
25811;DHT22;13645;52.460;13.910;2022-12-18T00:19:35;-5.00;99.90
25811;DHT22;13645;52.460;13.910;2022-12-18T00:22:02;-5.10;99.90
25811;DHT22;13645;52.460;13.910;2022-12-18T00:24:29;-5.00;99.90
25811;DHT22;13645;52.460;13.910;2022-12-18T00:26:55;-5.00;99.90
25811;DHT22;13645;52.460;13.910;2022-12-18T00:29:22;-5.00;99.90
25811;DHT22;13645;52.460;13.910;2022-12-18T00:31:49;-5.00;99.90
25811;DHT22;13645;52.460;13.910;2022-12-18T00:34:16;-5.00;99.90
25811;DHT22;13645;52.460;13.910;2022-12-18T00:36:42;-5.10;99.90
25811;DHT22;13645;52.460;13.910;2022-12-18T00:39:11;-5.10;99.90
25811;DHT22;13645;52.460;13.910;2022-12-18T00:41:38;-5.10;99.90
25811;DHT22;13645;52.460;13.910;2022-12-18T00:44:24;-5.00;99.90
25811;DHT22;13645;52.460;13.910;2022-12-18T00:46:50;-5.00;99.90
25811;DHT22;13645;52.460;13.910;2022-12-18T00:49:18;-5.00;99.90
25811;DHT22;13645;52.460;13.910;2022-12-18T00:51:46;-4.90;99.90
25811;DHT22;13645;52.460;13.910;2022-12-18T00:54:13;-4.90;99.90
25811;DHT22;13645;52.460;13.910;2022-12-18T00:56:40;-4.90;99.90
25811;DHT22;13645;52.460;13.910;2022-12-18T00:59:14;-4.80;99.90
25811;DHT22;13645;52.460;13.910;2022-12-18T01:01:41;-4.80;99.90
25811;DHT22;13645;52.460;13.910;2022-12-18T01:04:09;-4.80;99.90
25811;DHT22;13645;52.460;13.910;2022-12-18T01:06:35;-4.80;99.90
25811;DHT22;13645;52.460;13.910;2022-12-18T01:09:03;-4.90;99.90
25811;DHT22;13645;52.460;13.910;2022-12-18T01:11:29;-4.90;99.90
25811;DHT22;13645;52.460;13.910;2022-12-18T01:13:56;-5.00;99.90
25811;DHT22;13645;52.460;13.910;2022-12-18T01:16:23;-5.00;99.90
25811;DHT22;13645;52.460;13.910;2022-12-18T01:18:54;-5.00;99.90
25811;DHT22;13645;52.460;13.910;2022-12-18T01:21:22;-5.00;99.90
25811;DHT22;13645;52.460;13.910;2022-12-18T01:23:54;-5.00;99.90
25811;DHT22;13645;52.460;13.910;2022-12-18T01:26:22;-5.10;99.90
25811;DHT22;13645;52.460;13.910;2022-12-18T01:28:49;-5.20;99.90
25811;DHT22;13645;52.460;13.910;2022-12-18T01:33:44;-5.20;99.90
25811;DHT22;13645;52.460;13.910;2022-12-18T01:36:25;-5.20;99.90
25811;DHT22;13645;52.460;13.910;2022-12-18T01:38:53;-5.10;99.90
25811;DHT22;13645;52.460;13.910;2022-12-18T01:41:23;-5.20;99.90
25811;DHT22;13645;52.460;13.910;2022-12-18T01:43:57;-5.20;99.90
25811;DHT22;13645;52.460;13.910;2022-12-18T01:46:25;-5.10;99.90
25811;DHT22;13645;52.460;13.910;2022-12-18T01:48:56;-5.10;99.90
25811;DHT22;13645;52.460;13.910;2022-12-18T01:51:24;-5.10;99.90
25811;DHT22;13645;52.460;13.910;2022-12-18T01:53:52;-5.10;99.90
25811;DHT22;13645;52.460;13.910;2022-12-18T01:56:20;-5.20;99.90
25811;DHT22;13645;52.460;13.910;2022-12-18T01:59:16;-5.10;99.90
25811;DHT22;13645;52.460;13.910;2022-12-18T02:01:43;-5.10;99.90
25811;DHT22;13645;52.460;13.910;2022-12-18T02:04:22;-5.00;99.90
25811;DHT22;13645;52.460;13.910;2022-12-18T02:07:10;-5.00;99.90
25811;DHT22;13645;52.460;13.910;2022-12-18T02:09:57;-5.10;99.90
25811;DHT22;13645;52.460;13.910;2022-12-18T02:12:30;-5.10;99.90
25811;DHT22;13645;52.460;13.910;2022-12-18T02:15:24;-5.10;99.90
25811;DHT22;13645;52.460;13.910;2022-12-18T02:17:53;-5.00;99.90
25811;DHT22;13645;52.460;13.910;2022-12-18T02:20:49;-5.00;99.90
25811;DHT22;13645;52.460;13.910;2022-12-18T02:26:23;-4.90;99.90
25811;DHT22;13645;52.460;13.910;2022-12-18T02:28:56;-4.90;99.90
25811;DHT22;13645;52.460;13.910;2022-12-18T02:31:28;-4.90;99.90
25811;DHT22;13645;52.460;13.910;2022-12-18T02:34:00;-5.00;99.90
25811;DHT22;13645;52.460;13.910;2022-12-18T02:36:28;-5.00;99.90
25811;DHT22;13645;52.460;13.910;2022-12-18T02:38:56;-5.00;99.90
25811;DHT22;13645;52.460;13.910;2022-12-18T02:41:25;-5.00;99.90
25811;DHT22;13645;52.460;13.910;2022-12-18T02:44:00;-5.10;99.90
25811;DHT22;13645;52.460;13.910;2022-12-18T02:46:31;-5.00;99.90
25811;DHT22;13645;52.460;13.910;2022-12-18T03:00:14;-5.10;99.90
25811;DHT22;13645;52.460;13.910;2022-12-18T03:03:05;-5.20;99.90
25811;DHT22;13645;52.460;13.910;2022-12-18T03:08:21;-5.30;99.90
25811;DHT22;13645;52.460;13.910;2022-12-18T03:11:00;-5.40;99.90
25811;DHT22;13645;52.460;13.910;2022-12-18T03:13:32;-5.40;99.90
25811;DHT22;13645;52.460;13.910;2022-12-18T03:16:00;-5.50;99.90
25811;DHT22;13645;52.460;13.910;2022-12-18T03:18:36;-5.40;99.90
25811;DHT22;13645;52.460;13.910;2022-12-18T03:21:06;-5.40;99.90
25811;DHT22;13645;52.460;13.910;2022-12-18T03:23:36;-5.40;99.90
25811;DHT22;13645;52.460;13.910;2022-12-18T03:26:10;-5.40;99.90
25811;DHT22;13645;52.460;13.910;2022-12-18T03:28:42;-5.40;99.90
25811;DHT22;13645;52.460;13.910;2022-12-18T03:31:11;-5.40;99.90
25811;DHT22;13645;52.460;13.910;2022-12-18T03:33:42;-5.40;99.90
25811;DHT22;13645;52.460;13.910;2022-12-18T03:36:12;-5.40;99.90
25811;DHT22;13645;52.460;13.910;2022-12-18T03:38:39;-5.50;99.90
25811;DHT22;13645;52.460;13.910;2022-12-18T03:41:51;-5.50;99.90
25811;DHT22;13645;52.460;13.910;2022-12-18T03:44:02;-5.60;99.90
25811;DHT22;13645;52.460;13.910;2022-12-18T03:46:36;-5.60;99.90
25811;DHT22;13645;52.460;13.910;2022-12-18T03:49:11;-5.60;99.90
25811;DHT22;13645;52.460;13.910;2022-12-18T03:51:48;-5.50;99.90
25811;DHT22;13645;52.460;13.910;2022-12-18T03:54:17;-5.50;99.90
25811;DHT22;13645;52.460;13.910;2022-12-18T03:56:49;-5.40;99.90
25811;DHT22;13645;52.460;13.910;2022-12-18T03:59:18;-5.30;99.90
25811;DHT22;13645;52.460;13.910;2022-12-18T04:01:49;-5.30;99.90
25811;DHT22;13645;52.460;13.910;2022-12-18T04:04:18;-5.40;99.90
25811;DHT22;13645;52.460;13.910;2022-12-18T04:06:47;-5.50;99.90
25811;DHT22;13645;52.460;13.910;2022-12-18T04:09:15;-5.40;99.90
25811;DHT22;13645;52.460;13.910;2022-12-18T04:11:42;-5.50;99.90
25811;DHT22;13645;52.460;13.910;2022-12-18T04:14:12;-5.50;99.90
25811;DHT22;13645;52.460;13.910;2022-12-18T04:16:43;-5.50;99.90
25811;DHT22;13645;52.460;13.910;2022-12-18T04:19:10;-5.50;99.90
25811;DHT22;13645;52.460;13.910;2022-12-18T04:21:37;-5.50;99.90
25811;DHT22;13645;52.460;13.910;2022-12-18T04:24:04;-5.60;99.90
25811;DHT22;13645;52.460;13.910;2022-12-18T04:26:31;-5.60;99.90
25811;DHT22;13645;52.460;13.910;2022-12-18T04:28:58;-5.50;99.90
25811;DHT22;13645;52.460;13.910;2022-12-18T04:31:24;-5.50;99.90
25811;DHT22;13645;52.460;13.910;2022-12-18T04:33:51;-5.50;99.90
25811;DHT22;13645;52.460;13.910;2022-12-18T04:36:18;-5.40;99.90
25811;DHT22;13645;52.460;13.910;2022-12-18T04:38:44;-5.30;99.90
25811;DHT22;13645;52.460;13.910;2022-12-18T04:41:12;-5.20;99.90
25811;DHT22;13645;52.460;13.910;2022-12-18T04:43:39;-5.20;99.90
25811;DHT22;13645;52.460;13.910;2022-12-18T04:46:07;-5.30;99.90
25811;DHT22;13645;52.460;13.910;2022-12-18T04:48:35;-5.30;99.90
25811;DHT22;13645;52.460;13.910;2022-12-18T04:51:02;-5.40;99.90
25811;DHT22;13645;52.460;13.910;2022-12-18T04:53:29;-5.40;99.90
25811;DHT22;13645;52.460;13.910;2022-12-18T04:58:30;-5.50;99.90
25811;DHT22;13645;52.460;13.910;2022-12-18T05:00:56;-5.50;99.90
25811;DHT22;13645;52.460;13.910;2022-12-18T05:03:23;-5.50;99.90
25811;DHT22;13645;52.460;13.910;2022-12-18T05:05:50;-5.50;99.90
25811;DHT22;13645;52.460;13.910;2022-12-18T05:08:18;-5.50;99.90
25811;DHT22;13645;52.460;13.910;2022-12-18T05:10:45;-5.50;99.90
25811;DHT22;13645;52.460;13.910;2022-12-18T05:13:12;-5.50;99.90
25811;DHT22;13645;52.460;13.910;2022-12-18T05:15:38;-5.50;99.90
25811;DHT22;13645;52.460;13.910;2022-12-18T05:18:05;-5.50;99.90
25811;DHT22;13645;52.460;13.910;2022-12-18T05:20:32;-5.50;99.90
25811;DHT22;13645;52.460;13.910;2022-12-18T05:22:59;-5.50;99.90
25811;DHT22;13645;52.460;13.910;2022-12-18T05:25:26;-5.50;99.90
25811;DHT22;13645;52.460;13.910;2022-12-18T05:27:53;-5.60;99.90
25811;DHT22;13645;52.460;13.910;2022-12-18T05:30:19;-5.70;99.90
25811;DHT22;13645;52.460;13.910;2022-12-18T05:32:46;-5.70;99.90
25811;DHT22;13645;52.460;13.910;2022-12-18T05:35:13;-5.70;99.90
25811;DHT22;13645;52.460;13.910;2022-12-18T05:37:40;-5.60;99.90
25811;DHT22;13645;52.460;13.910;2022-12-18T05:40:09;-5.60;99.90
25811;DHT22;13645;52.460;13.910;2022-12-18T05:42:36;-5.60;99.90
25811;DHT22;13645;52.460;13.910;2022-12-18T05:45:04;-5.60;99.90
25811;DHT22;13645;52.460;13.910;2022-12-18T05:47:31;-5.50;99.90
25811;DHT22;13645;52.460;13.910;2022-12-18T05:49:58;-5.60;99.90
25811;DHT22;13645;52.460;13.910;2022-12-18T05:52:25;-5.70;99.90
25811;DHT22;13645;52.460;13.910;2022-12-18T05:54:51;-5.70;99.90
25811;DHT22;13645;52.460;13.910;2022-12-18T05:57:18;-5.70;99.90
25811;DHT22;13645;52.460;13.910;2022-12-18T05:59:45;-5.60;99.90
25811;DHT22;13645;52.460;13.910;2022-12-18T06:02:11;-5.50;99.90
25811;DHT22;13645;52.460;13.910;2022-12-18T06:04:38;-5.50;99.90
25811;DHT22;13645;52.460;13.910;2022-12-18T06:07:05;-5.50;99.90
25811;DHT22;13645;52.460;13.910;2022-12-18T06:09:32;-5.50;99.90
25811;DHT22;13645;52.460;13.910;2022-12-18T06:11:58;-5.50;99.90
25811;DHT22;13645;52.460;13.910;2022-12-18T06:14:25;-5.60;99.90
25811;DHT22;13645;52.460;13.910;2022-12-18T06:16:52;-5.60;99.90
25811;DHT22;13645;52.460;13.910;2022-12-18T06:19:19;-5.50;99.90
25811;DHT22;13645;52.460;13.910;2022-12-18T06:21:46;-5.50;99.90
25811;DHT22;13645;52.460;13.910;2022-12-18T06:24:13;-5.50;99.90
25811;DHT22;13645;52.460;13.910;2022-12-18T06:26:39;-5.50;99.90
25811;DHT22;13645;52.460;13.910;2022-12-18T06:29:06;-5.50;99.90
25811;DHT22;13645;52.460;13.910;2022-12-18T06:31:33;-5.60;99.90
25811;DHT22;13645;52.460;13.910;2022-12-18T06:34:03;-5.50;99.90
25811;DHT22;13645;52.460;13.910;2022-12-18T06:36:30;-5.50;99.90
25811;DHT22;13645;52.460;13.910;2022-12-18T06:38:57;-5.40;99.90
25811;DHT22;13645;52.460;13.910;2022-12-18T06:41:24;-5.40;99.90
25811;DHT22;13645;52.460;13.910;2022-12-18T06:43:51;-5.40;99.90
25811;DHT22;13645;52.460;13.910;2022-12-18T06:46:22;-5.40;99.90
25811;DHT22;13645;52.460;13.910;2022-12-18T06:48:49;-5.40;99.90
25811;DHT22;13645;52.460;13.910;2022-12-18T06:51:18;-5.30;99.90
25811;DHT22;13645;52.460;13.910;2022-12-18T06:53:45;-5.30;99.90
25811;DHT22;13645;52.460;13.910;2022-12-18T06:56:12;-5.20;99.90
25811;DHT22;13645;52.460;13.910;2022-12-18T06:58:39;-5.30;99.90
25811;DHT22;13645;52.460;13.910;2022-12-18T07:01:08;-5.20;99.90
25811;DHT22;13645;52.460;13.910;2022-12-18T07:03:36;-5.10;99.90
25811;DHT22;13645;52.460;13.910;2022-12-18T07:06:04;-5.10;99.90
25811;DHT22;13645;52.460;13.910;2022-12-18T07:08:31;-5.10;99.90
25811;DHT22;13645;52.460;13.910;2022-12-18T07:10:58;-5.10;99.90
25811;DHT22;13645;52.460;13.910;2022-12-18T07:13:25;-5.10;99.90
25811;DHT22;13645;52.460;13.910;2022-12-18T07:15:51;-5.10;99.90
25811;DHT22;13645;52.460;13.910;2022-12-18T07:18:18;-5.10;99.90
25811;DHT22;13645;52.460;13.910;2022-12-18T07:20:45;-5.00;99.90
25811;DHT22;13645;52.460;13.910;2022-12-18T07:23:13;-5.00;99.90
25811;DHT22;13645;52.460;13.910;2022-12-18T07:25:39;-5.00;99.90
25811;DHT22;13645;52.460;13.910;2022-12-18T07:28:06;-5.00;99.90
25811;DHT22;13645;52.460;13.910;2022-12-18T07:30:39;-5.00;99.90
25811;DHT22;13645;52.460;13.910;2022-12-18T07:33:07;-4.90;99.90
25811;DHT22;13645;52.460;13.910;2022-12-18T07:35:34;-4.90;99.90
25811;DHT22;13645;52.460;13.910;2022-12-18T07:38:00;-4.90;99.90
25811;DHT22;13645;52.460;13.910;2022-12-18T07:40:27;-4.90;99.90
25811;DHT22;13645;52.460;13.910;2022-12-18T07:42:54;-4.90;99.90
25811;DHT22;13645;52.460;13.910;2022-12-18T07:45:21;-4.80;99.90
25811;DHT22;13645;52.460;13.910;2022-12-18T07:47:47;-4.80;99.90
25811;DHT22;13645;52.460;13.910;2022-12-18T07:50:14;-4.70;99.90
25811;DHT22;13645;52.460;13.910;2022-12-18T07:52:41;-4.80;99.90
25811;DHT22;13645;52.460;13.910;2022-12-18T07:55:08;-4.70;99.90
25811;DHT22;13645;52.460;13.910;2022-12-18T07:57:34;-4.80;99.90
25811;DHT22;13645;52.460;13.910;2022-12-18T08:00:21;-4.70;99.90
25811;DHT22;13645;52.460;13.910;2022-12-18T08:02:48;-4.60;99.90
25811;DHT22;13645;52.460;13.910;2022-12-18T08:05:15;-4.70;99.90
25811;DHT22;13645;52.460;13.910;2022-12-18T08:07:42;-4.70;99.90
25811;DHT22;13645;52.460;13.910;2022-12-18T08:10:09;-4.70;99.90
25811;DHT22;13645;52.460;13.910;2022-12-18T08:12:36;-4.60;99.90
25811;DHT22;13645;52.460;13.910;2022-12-18T08:15:02;-4.60;99.90
25811;DHT22;13645;52.460;13.910;2022-12-18T08:17:30;-4.60;99.90
25811;DHT22;13645;52.460;13.910;2022-12-18T08:19:57;-4.50;99.90
25811;DHT22;13645;52.460;13.910;2022-12-18T08:22:23;-4.50;99.90
25811;DHT22;13645;52.460;13.910;2022-12-18T08:24:50;-4.30;99.90
25811;DHT22;13645;52.460;13.910;2022-12-18T08:27:17;-4.30;99.90
25811;DHT22;13645;52.460;13.910;2022-12-18T08:29:57;-4.30;99.90
25811;DHT22;13645;52.460;13.910;2022-12-18T08:32:26;-4.30;99.90
25811;DHT22;13645;52.460;13.910;2022-12-18T08:34:53;-4.20;99.90
25811;DHT22;13645;52.460;13.910;2022-12-18T08:37:20;-4.10;99.90
25811;DHT22;13645;52.460;13.910;2022-12-18T08:39:46;-4.00;99.90
25811;DHT22;13645;52.460;13.910;2022-12-18T08:42:13;-4.00;99.90
25811;DHT22;13645;52.460;13.910;2022-12-18T08:44:58;-4.00;99.90
25811;DHT22;13645;52.460;13.910;2022-12-18T08:47:25;-4.00;99.90
25811;DHT22;13645;52.460;13.910;2022-12-18T08:49:52;-3.90;99.90
25811;DHT22;13645;52.460;13.910;2022-12-18T08:52:19;-3.90;99.90
25811;DHT22;13645;52.460;13.910;2022-12-18T08:54:45;-3.90;99.90
25811;DHT22;13645;52.460;13.910;2022-12-18T08:57:12;-3.80;99.90
25811;DHT22;13645;52.460;13.910;2022-12-18T08:59:39;-3.80;99.90
25811;DHT22;13645;52.460;13.910;2022-12-18T09:02:05;-3.80;99.90
25811;DHT22;13645;52.460;13.910;2022-12-18T09:04:32;-3.80;99.90
25811;DHT22;13645;52.460;13.910;2022-12-18T09:06:59;-3.70;99.90
25811;DHT22;13645;52.460;13.910;2022-12-18T09:09:26;-3.80;99.90
25811;DHT22;13645;52.460;13.910;2022-12-18T09:11:52;-3.70;99.90
25811;DHT22;13645;52.460;13.910;2022-12-18T09:14:19;-3.60;99.90
25811;DHT22;13645;52.460;13.910;2022-12-18T09:16:46;-3.60;99.90
25811;DHT22;13645;52.460;13.910;2022-12-18T09:19:13;-3.60;99.90
25811;DHT22;13645;52.460;13.910;2022-12-18T09:21:39;-3.60;99.90
25811;DHT22;13645;52.460;13.910;2022-12-18T09:24:14;-3.60;99.90
25811;DHT22;13645;52.460;13.910;2022-12-18T09:26:41;-3.60;99.90
25811;DHT22;13645;52.460;13.910;2022-12-18T09:29:13;-3.60;99.90
25811;DHT22;13645;52.460;13.910;2022-12-18T09:31:41;-3.60;99.90
25811;DHT22;13645;52.460;13.910;2022-12-18T09:34:08;-3.60;99.90
25811;DHT22;13645;52.460;13.910;2022-12-18T09:36:35;-3.60;99.90
25811;DHT22;13645;52.460;13.910;2022-12-18T09:39:02;-3.60;99.90
25811;DHT22;13645;52.460;13.910;2022-12-18T09:41:56;-3.60;99.90
25811;DHT22;13645;52.460;13.910;2022-12-18T09:44:30;-3.50;99.90
25811;DHT22;13645;52.460;13.910;2022-12-18T09:49:53;-3.50;99.90
25811;DHT22;13645;52.460;13.910;2022-12-18T09:52:23;-3.40;99.90
25811;DHT22;13645;52.460;13.910;2022-12-18T09:55:09;-3.50;99.90
25811;DHT22;13645;52.460;13.910;2022-12-18T09:57:45;-3.40;99.90
25811;DHT22;13645;52.460;13.910;2022-12-18T10:00:24;-3.30;99.90
25811;DHT22;13645;52.460;13.910;2022-12-18T10:02:58;-3.30;99.90
25811;DHT22;13645;52.460;13.910;2022-12-18T10:08:37;-3.50;99.90
25811;DHT22;13645;52.460;13.910;2022-12-18T10:19:56;-3.30;99.90
25811;DHT22;13645;52.460;13.910;2022-12-18T10:27:30;-3.30;99.90
25811;DHT22;13645;52.460;13.910;2022-12-18T10:29:59;-3.20;99.90
25811;DHT22;13645;52.460;13.910;2022-12-18T10:32:29;-3.20;99.90
25811;DHT22;13645;52.460;13.910;2022-12-18T10:34:57;-3.20;99.90
25811;DHT22;13645;52.460;13.910;2022-12-18T10:37:28;-3.20;99.90
25811;DHT22;13645;52.460;13.910;2022-12-18T10:40:12;-3.20;99.90
25811;DHT22;13645;52.460;13.910;2022-12-18T10:43:01;-3.20;99.90
25811;DHT22;13645;52.460;13.910;2022-12-18T10:45:29;-3.20;99.90
25811;DHT22;13645;52.460;13.910;2022-12-18T10:47:56;-3.20;99.90
25811;DHT22;13645;52.460;13.910;2022-12-18T10:50:28;-3.00;99.90
25811;DHT22;13645;52.460;13.910;2022-12-18T10:53:20;-3.00;99.90
25811;DHT22;13645;52.460;13.910;2022-12-18T10:55:48;-3.00;99.90
25811;DHT22;13645;52.460;13.910;2022-12-18T11:01:16;-2.90;99.90
25811;DHT22;13645;52.460;13.910;2022-12-18T11:06:17;-3.00;99.90
25811;DHT22;13645;52.460;13.910;2022-12-18T11:09:00;-3.10;99.90
25811;DHT22;13645;52.460;13.910;2022-12-18T11:11:33;-3.20;99.90
25811;DHT22;13645;52.460;13.910;2022-12-18T11:14:04;-3.20;99.90
25811;DHT22;13645;52.460;13.910;2022-12-18T11:16:36;-3.20;99.90
25811;DHT22;13645;52.460;13.910;2022-12-18T11:22:16;-3.10;99.90
25811;DHT22;13645;52.460;13.910;2022-12-18T11:27:51;-3.00;99.90
25811;DHT22;13645;52.460;13.910;2022-12-18T11:30:28;-3.00;99.90
25811;DHT22;13645;52.460;13.910;2022-12-18T11:33:03;-3.00;99.90
25811;DHT22;13645;52.460;13.910;2022-12-18T11:35:53;-3.00;99.90
25811;DHT22;13645;52.460;13.910;2022-12-18T11:38:30;-3.00;99.90
25811;DHT22;13645;52.460;13.910;2022-12-18T11:41:21;-3.00;99.90
25811;DHT22;13645;52.460;13.910;2022-12-18T11:43:54;-2.90;99.90
25811;DHT22;13645;52.460;13.910;2022-12-18T11:49:15;-3.00;99.90
25811;DHT22;13645;52.460;13.910;2022-12-18T11:52:00;-3.00;99.90
25811;DHT22;13645;52.460;13.910;2022-12-18T11:54:28;-3.00;99.90
25811;DHT22;13645;52.460;13.910;2022-12-18T11:57:14;-2.90;99.90
25811;DHT22;13645;52.460;13.910;2022-12-18T12:00:10;-2.90;99.90
25811;DHT22;13645;52.460;13.910;2022-12-18T12:11:55;-2.90;99.90
25811;DHT22;13645;52.460;13.910;2022-12-18T12:25:43;-2.90;99.90
25811;DHT22;13645;52.460;13.910;2022-12-18T12:28:13;-2.90;99.90
25811;DHT22;13645;52.460;13.910;2022-12-18T12:36:37;-2.80;99.90
25811;DHT22;13645;52.460;13.910;2022-12-18T12:39:06;-2.70;99.90
25811;DHT22;13645;52.460;13.910;2022-12-18T12:41:34;-2.70;99.90
25811;DHT22;13645;52.460;13.910;2022-12-18T12:44:27;-2.60;99.90
25811;DHT22;13645;52.460;13.910;2022-12-18T12:47:01;-2.70;99.90
25811;DHT22;13645;52.460;13.910;2022-12-18T12:49:33;-2.70;99.90
25811;DHT22;13645;52.460;13.910;2022-12-18T12:55:04;-2.80;99.90
25811;DHT22;13645;52.460;13.910;2022-12-18T12:57:45;-2.80;99.90
25811;DHT22;13645;52.460;13.910;2022-12-18T13:00:18;-2.80;99.90
25811;DHT22;13645;52.460;13.910;2022-12-18T13:03:15;-2.80;99.90
25811;DHT22;13645;52.460;13.910;2022-12-18T13:05:54;-2.80;99.90
25811;DHT22;13645;52.460;13.910;2022-12-18T13:08:30;-2.80;99.90
25811;DHT22;13645;52.460;13.910;2022-12-18T13:11:00;-2.80;99.90
25811;DHT22;13645;52.460;13.910;2022-12-18T13:13:50;-2.70;99.90
25811;DHT22;13645;52.460;13.910;2022-12-18T13:16:23;-2.70;99.90
25811;DHT22;13645;52.460;13.910;2022-12-18T13:18:52;-2.70;99.90
25811;DHT22;13645;52.460;13.910;2022-12-18T13:21:30;-2.70;99.90
25811;DHT22;13645;52.460;13.910;2022-12-18T13:24:28;-2.80;99.90
25811;DHT22;13645;52.460;13.910;2022-12-18T13:26:57;-2.70;99.90
25811;DHT22;13645;52.460;13.910;2022-12-18T13:29:56;-2.80;99.90
25811;DHT22;13645;52.460;13.910;2022-12-18T13:32:25;-2.80;99.90
25811;DHT22;13645;52.460;13.910;2022-12-18T13:37:52;-2.90;99.90
25811;DHT22;13645;52.460;13.910;2022-12-18T13:43:29;-2.80;99.90
25811;DHT22;13645;52.460;13.910;2022-12-18T13:46:04;-2.80;99.90
25811;DHT22;13645;52.460;13.910;2022-12-18T13:48:34;-2.80;99.90
25811;DHT22;13645;52.460;13.910;2022-12-18T13:51:10;-2.90;99.90
25811;DHT22;13645;52.460;13.910;2022-12-18T13:53:46;-2.90;99.90
25811;DHT22;13645;52.460;13.910;2022-12-18T13:56:20;-2.90;99.90
25811;DHT22;13645;52.460;13.910;2022-12-18T14:01:48;-2.90;99.90
25811;DHT22;13645;52.460;13.910;2022-12-18T14:04:19;-2.90;99.90
25811;DHT22;13645;52.460;13.910;2022-12-18T14:06:47;-2.80;99.90
25811;DHT22;13645;52.460;13.910;2022-12-18T14:09:24;-2.90;99.90
25811;DHT22;13645;52.460;13.910;2022-12-18T14:11:53;-3.00;99.90
25811;DHT22;13645;52.460;13.910;2022-12-18T14:14:47;-3.00;99.90
25811;DHT22;13645;52.460;13.910;2022-12-18T14:17:19;-2.90;99.90
25811;DHT22;13645;52.460;13.910;2022-12-18T14:19:49;-3.00;99.90
25811;DHT22;13645;52.460;13.910;2022-12-18T14:22:21;-3.00;99.90
25811;DHT22;13645;52.460;13.910;2022-12-18T14:27:45;-3.10;99.90
25811;DHT22;13645;52.460;13.910;2022-12-18T14:33:09;-3.20;99.90
25811;DHT22;13645;52.460;13.910;2022-12-18T14:35:59;-3.20;99.90
25811;DHT22;13645;52.460;13.910;2022-12-18T14:38:30;-3.20;99.90
25811;DHT22;13645;52.460;13.910;2022-12-18T14:41:04;-3.30;99.90
25811;DHT22;13645;52.460;13.910;2022-12-18T14:43:36;-3.30;99.90
25811;DHT22;13645;52.460;13.910;2022-12-18T14:48:51;-3.30;99.90
25811;DHT22;13645;52.460;13.910;2022-12-18T14:51:19;-3.40;99.90
25811;DHT22;13645;52.460;13.910;2022-12-18T14:53:54;-3.40;99.90
25811;DHT22;13645;52.460;13.910;2022-12-18T14:56:23;-3.30;99.90
25811;DHT22;13645;52.460;13.910;2022-12-18T14:58:59;-3.30;99.90
25811;DHT22;13645;52.460;13.910;2022-12-18T15:01:29;-3.30;99.90
25811;DHT22;13645;52.460;13.910;2022-12-18T15:03:58;-3.20;99.90
25811;DHT22;13645;52.460;13.910;2022-12-18T15:06:36;-3.20;99.90
25811;DHT22;13645;52.460;13.910;2022-12-18T15:09:25;-3.20;99.90
25811;DHT22;13645;52.460;13.910;2022-12-18T15:12:00;-3.20;99.90
25811;DHT22;13645;52.460;13.910;2022-12-18T15:14:38;-3.20;99.90
25811;DHT22;13645;52.460;13.910;2022-12-18T15:17:18;-3.20;99.90
25811;DHT22;13645;52.460;13.910;2022-12-18T15:19:47;-3.20;99.90
25811;DHT22;13645;52.460;13.910;2022-12-18T15:22:24;-3.30;99.90
25811;DHT22;13645;52.460;13.910;2022-12-18T15:24:52;-3.30;99.90
25811;DHT22;13645;52.460;13.910;2022-12-18T15:27:31;-3.40;99.90
25811;DHT22;13645;52.460;13.910;2022-12-18T15:32:39;-3.40;99.90
25811;DHT22;13645;52.460;13.910;2022-12-18T15:37:43;-3.40;99.90
25811;DHT22;13645;52.460;13.910;2022-12-18T15:40:22;-3.40;99.90
25811;DHT22;13645;52.460;13.910;2022-12-18T15:42:52;-3.40;99.90
25811;DHT22;13645;52.460;13.910;2022-12-18T15:45:38;-3.30;99.90
25811;DHT22;13645;52.460;13.910;2022-12-18T15:48:21;-3.30;99.90
25811;DHT22;13645;52.460;13.910;2022-12-18T15:50:52;-3.30;99.90
25811;DHT22;13645;52.460;13.910;2022-12-18T15:53:19;-3.30;99.90
25811;DHT22;13645;52.460;13.910;2022-12-18T15:55:46;-3.30;99.90
25811;DHT22;13645;52.460;13.910;2022-12-18T15:58:49;-3.40;99.90
25811;DHT22;13645;52.460;13.910;2022-12-18T16:01:16;-3.50;99.90
25811;DHT22;13645;52.460;13.910;2022-12-18T16:03:45;-3.30;99.90
25811;DHT22;13645;52.460;13.910;2022-12-18T16:06:12;-3.30;99.90
25811;DHT22;13645;52.460;13.910;2022-12-18T16:08:38;-3.40;99.90
25811;DHT22;13645;52.460;13.910;2022-12-18T16:11:26;-3.40;99.90
25811;DHT22;13645;52.460;13.910;2022-12-18T16:16:50;-3.30;99.90
25811;DHT22;13645;52.460;13.910;2022-12-18T16:19:17;-3.30;99.90
25811;DHT22;13645;52.460;13.910;2022-12-18T16:21:46;-3.40;99.90
25811;DHT22;13645;52.460;13.910;2022-12-18T16:24:15;-3.50;99.90
25811;DHT22;13645;52.460;13.910;2022-12-18T16:26:43;-3.50;99.90
25811;DHT22;13645;52.460;13.910;2022-12-18T16:29:10;-3.40;99.90
25811;DHT22;13645;52.460;13.910;2022-12-18T16:31:37;-3.50;99.90
25811;DHT22;13645;52.460;13.910;2022-12-18T16:36:53;-3.40;99.90
25811;DHT22;13645;52.460;13.910;2022-12-18T16:39:23;-3.40;99.90
25811;DHT22;13645;52.460;13.910;2022-12-18T16:41:50;-3.40;99.90
25811;DHT22;13645;52.460;13.910;2022-12-18T16:44:17;-3.50;99.90
25811;DHT22;13645;52.460;13.910;2022-12-18T16:46:44;-3.60;99.90
25811;DHT22;13645;52.460;13.910;2022-12-18T16:49:15;-3.70;99.90
25811;DHT22;13645;52.460;13.910;2022-12-18T16:51:43;-3.70;99.90
25811;DHT22;13645;52.460;13.910;2022-12-18T16:54:10;-3.70;99.90
25811;DHT22;13645;52.460;13.910;2022-12-18T16:56:44;-3.80;99.90
25811;DHT22;13645;52.460;13.910;2022-12-18T16:59:12;-3.90;99.90
25811;DHT22;13645;52.460;13.910;2022-12-18T17:01:39;-3.80;99.90
25811;DHT22;13645;52.460;13.910;2022-12-18T17:04:08;-3.90;99.90
25811;DHT22;13645;52.460;13.910;2022-12-18T17:06:39;-3.90;99.90
25811;DHT22;13645;52.460;13.910;2022-12-18T17:09:12;-3.90;99.90
25811;DHT22;13645;52.460;13.910;2022-12-18T17:11:42;-4.00;99.90
25811;DHT22;13645;52.460;13.910;2022-12-18T17:14:15;-4.00;99.90
25811;DHT22;13645;52.460;13.910;2022-12-18T17:16:42;-4.10;99.90
25811;DHT22;13645;52.460;13.910;2022-12-18T17:19:09;-4.20;99.90
25811;DHT22;13645;52.460;13.910;2022-12-18T17:21:43;-4.20;99.90
25811;DHT22;13645;52.460;13.910;2022-12-18T17:24:10;-4.00;99.90
25811;DHT22;13645;52.460;13.910;2022-12-18T17:26:37;-4.10;99.90
25811;DHT22;13645;52.460;13.910;2022-12-18T17:29:04;-4.20;99.90
25811;DHT22;13645;52.460;13.910;2022-12-18T17:31:32;-4.20;99.90
25811;DHT22;13645;52.460;13.910;2022-12-18T17:34:00;-4.30;99.90